createdAt,value
2023-11-26T00:01:49.515Z,10.00
2023-11-26T00:04:16.528Z,6.20
2023-11-26T00:06:43.805Z,9.43
2023-11-26T00:09:10.972Z,6.15
2023-11-26T00:11:38.240Z,8.00
2023-11-26T00:14:05.647Z,15.02
2023-11-26T00:16:39.525Z,6.60
2023-11-26T00:19:06.807Z,9.43
2023-11-26T00:21:34.027Z,11.60
2023-11-26T00:24:01.033Z,11.40
2023-11-26T00:26:28.341Z,7.05
2023-11-26T00:28:55.917Z,6.70
2023-11-26T00:31:22.870Z,5.05
2023-11-26T00:33:49.943Z,5.22
2023-11-26T00:36:17.598Z,7.22
2023-11-26T00:38:45.043Z,4.00
2023-11-26T00:41:12.111Z,6.57
2023-11-26T00:43:39.036Z,5.93
2023-11-26T00:46:05.990Z,6.55
2023-11-26T00:48:33.154Z,6.35
2023-11-26T00:51:00.153Z,9.30
2023-11-26T00:53:27.252Z,7.72
2023-11-26T00:55:54.226Z,22.17
2023-11-26T00:58:21.155Z,4.30
2023-11-26T01:00:48.243Z,4.43
2023-11-26T01:03:15.486Z,3.70
2023-11-26T01:05:42.497Z,4.97
2023-11-26T01:08:09.486Z,4.03
2023-11-26T01:10:36.442Z,6.68
2023-11-26T01:13:03.388Z,5.88
2023-11-26T01:15:30.297Z,4.35
2023-11-26T01:17:57.465Z,4.80
2023-11-26T01:20:24.498Z,3.80
2023-11-26T01:22:51.461Z,3.67
2023-11-26T01:25:18.451Z,4.97
2023-11-26T01:27:45.396Z,5.45
2023-11-26T01:30:12.655Z,5.68
2023-11-26T01:32:39.598Z,4.72
2023-11-26T01:35:06.934Z,5.97
2023-11-26T01:37:33.845Z,4.60
2023-11-26T01:40:00.864Z,3.72
2023-11-26T01:42:27.860Z,3.63
2023-11-26T01:44:54.840Z,3.42
2023-11-26T01:47:22.063Z,3.97
2023-11-26T01:49:49.290Z,3.85
2023-11-26T01:52:16.287Z,4.45
2023-11-26T01:54:44.310Z,9.35
2023-11-26T01:57:13.040Z,3.70
2023-11-26T01:59:41.327Z,3.83
2023-11-26T02:02:08.596Z,4.15
2023-11-26T02:04:37.056Z,3.15
2023-11-26T02:07:05.035Z,8.93
2023-11-26T02:09:32.211Z,4.10
2023-11-26T02:11:59.092Z,7.53
2023-11-26T02:14:26.092Z,13.05
2023-11-26T02:16:53.115Z,3.38
2023-11-26T02:19:26.973Z,4.20
2023-11-26T02:21:54.053Z,4.57
2023-11-26T02:24:27.258Z,6.18
2023-11-26T02:26:54.663Z,3.83
2023-11-26T02:29:22.025Z,3.28
2023-11-26T02:31:49.230Z,3.38
2023-11-26T02:34:16.310Z,3.58
2023-11-26T02:36:43.269Z,4.28
2023-11-26T02:39:10.249Z,2.95
2023-11-26T02:41:37.255Z,4.32
2023-11-26T02:44:05.003Z,3.05
2023-11-26T02:46:31.965Z,3.45
2023-11-26T02:48:58.886Z,4.75
2023-11-26T02:51:25.897Z,2.90
2023-11-26T02:53:52.813Z,9.07
2023-11-26T02:56:19.801Z,7.80
2023-11-26T02:58:46.760Z,6.45
2023-11-26T03:01:18.168Z,9.38
2023-11-26T03:03:45.639Z,3.55
2023-11-26T03:06:12.954Z,3.80
2023-11-26T03:08:39.851Z,2.50
2023-11-26T03:11:06.854Z,3.60
2023-11-26T03:13:33.979Z,7.88
2023-11-26T03:16:00.932Z,6.75
2023-11-26T03:18:27.928Z,3.42
2023-11-26T03:20:54.878Z,5.85
2023-11-26T03:23:21.847Z,6.43
2023-11-26T03:25:48.792Z,3.22
2023-11-26T03:28:15.707Z,5.60
2023-11-26T03:30:42.818Z,4.82
2023-11-26T03:33:09.928Z,2.53
2023-11-26T03:35:39.694Z,6.57
2023-11-26T03:38:06.634Z,3.72
2023-11-26T03:40:33.569Z,4.10
2023-11-26T03:43:00.489Z,3.05
2023-11-26T03:45:27.373Z,2.10
2023-11-26T03:47:54.340Z,2.75
2023-11-26T03:50:21.319Z,2.78
2023-11-26T03:52:50.137Z,3.17
2023-11-26T03:55:17.236Z,2.42
2023-11-26T03:57:44.473Z,2.42
2023-11-26T04:00:12.340Z,2.50
2023-11-26T04:02:39.356Z,2.25
2023-11-26T04:05:07.813Z,2.00
2023-11-26T04:07:35.364Z,2.28
2023-11-26T04:10:02.328Z,2.03
2023-11-26T04:12:29.244Z,2.47
2023-11-26T04:15:02.787Z,3.20
2023-11-26T04:17:31.198Z,1.98
2023-11-26T04:19:58.259Z,2.22
2023-11-26T04:22:25.789Z,1.98
2023-11-26T04:24:53.109Z,2.33
2023-11-26T04:27:21.122Z,2.10
2023-11-26T04:29:48.392Z,2.20
2023-11-26T04:32:15.791Z,2.17
2023-11-26T04:34:42.893Z,1.70
2023-11-26T04:37:09.957Z,2.00
2023-11-26T04:39:37.649Z,2.13
2023-11-26T04:42:05.109Z,1.90
2023-11-26T04:44:32.133Z,2.00
2023-11-26T04:46:59.500Z,2.13
2023-11-26T04:49:26.855Z,2.45
2023-11-26T04:51:53.815Z,1.98
2023-11-26T04:54:20.725Z,2.58
2023-11-26T04:56:47.783Z,2.67
2023-11-26T04:59:14.769Z,2.42
2023-11-26T05:01:41.775Z,2.70
2023-11-26T05:04:08.781Z,2.20
2023-11-26T05:06:35.744Z,2.40
2023-11-26T05:09:02.722Z,2.50
2023-11-26T05:11:29.668Z,2.42
2023-11-26T05:13:56.673Z,2.42
2023-11-26T05:16:23.605Z,2.10
2023-11-26T05:18:50.561Z,2.60
2023-11-26T05:21:17.604Z,2.08
2023-11-26T05:23:44.615Z,2.40
2023-11-26T05:26:13.909Z,2.08
2023-11-26T05:28:40.948Z,2.53
2023-11-26T05:31:08.024Z,2.33
2023-11-26T05:33:34.971Z,2.20
2023-11-26T05:36:01.890Z,2.00
2023-11-26T05:38:28.834Z,2.17
2023-11-26T05:40:55.771Z,2.30
2023-11-26T05:43:22.701Z,2.38
2023-11-26T05:45:49.668Z,2.17
2023-11-26T05:48:16.674Z,1.95
2023-11-26T05:50:43.691Z,2.00
2023-11-26T05:53:10.617Z,1.80
2023-11-26T05:55:37.612Z,1.90
2023-11-26T05:58:04.609Z,2.20
2023-11-26T06:00:31.662Z,2.00
2023-11-26T06:02:58.636Z,2.25
2023-11-26T06:05:25.558Z,1.77
2023-11-26T06:07:52.488Z,2.17
2023-11-26T06:10:19.413Z,1.50
2023-11-26T06:12:46.402Z,1.73
2023-11-26T06:15:13.411Z,1.67
2023-11-26T06:17:40.369Z,2.10
2023-11-26T06:20:08.166Z,1.58
2023-11-26T06:22:35.104Z,1.65
2023-11-26T06:25:02.019Z,1.88
2023-11-26T06:27:28.921Z,2.17
2023-11-26T06:29:55.871Z,2.00
2023-11-26T06:32:22.787Z,1.75
2023-11-26T06:34:49.760Z,1.67
2023-11-26T06:37:16.678Z,1.75
2023-11-26T06:39:43.689Z,1.70
2023-11-26T06:42:10.665Z,2.40
2023-11-26T06:44:37.582Z,1.80
2023-11-26T06:47:04.763Z,1.80
2023-11-26T06:49:31.688Z,1.75
2023-11-26T06:51:58.689Z,1.83
2023-11-26T06:54:25.685Z,2.05
2023-11-26T06:56:52.597Z,2.75
2023-11-26T06:59:19.537Z,1.90
2023-11-26T07:01:46.533Z,2.50
2023-11-26T07:04:13.673Z,2.60
2023-11-26T07:06:42.230Z,2.17
2023-11-26T07:09:09.462Z,2.10
2023-11-26T07:11:36.925Z,2.40
2023-11-26T07:14:03.993Z,2.30
2023-11-26T07:16:30.935Z,2.88
2023-11-26T07:18:57.880Z,2.25
2023-11-26T07:21:24.827Z,2.50
2023-11-26T07:23:51.995Z,2.00
2023-11-26T07:26:19.027Z,2.33
2023-11-26T07:28:45.968Z,2.60
2023-11-26T07:31:17.988Z,1.58
2023-11-26T07:33:45.300Z,2.03
2023-11-26T07:36:17.259Z,2.83
2023-11-26T07:38:44.405Z,2.70
2023-11-26T07:41:11.718Z,2.20
2023-11-26T07:43:42.944Z,3.65
2023-11-26T07:46:11.105Z,2.72
2023-11-26T07:48:39.007Z,3.47
2023-11-26T07:51:06.664Z,2.50
2023-11-26T07:53:34.350Z,2.47
2023-11-26T07:56:01.801Z,3.70
2023-11-26T07:58:29.599Z,3.30
2023-11-26T08:00:56.657Z,2.80
2023-11-26T08:03:23.641Z,2.80
2023-11-26T08:05:51.225Z,4.70
2023-11-26T08:08:18.154Z,3.47
2023-11-26T08:10:45.149Z,3.20
2023-11-26T08:13:12.153Z,2.63
2023-11-26T08:15:40.281Z,3.67
2023-11-26T08:18:07.413Z,4.70
2023-11-26T08:20:34.710Z,3.70
2023-11-26T08:23:01.653Z,2.72
2023-11-26T08:25:29.217Z,3.25
2023-11-26T08:27:56.261Z,3.00
2023-11-26T08:30:23.266Z,3.30
2023-11-26T08:32:50.287Z,3.65
2023-11-26T08:35:17.260Z,2.90
2023-11-26T08:37:44.214Z,2.90
2023-11-26T08:40:12.342Z,2.90
2023-11-26T08:42:39.301Z,2.90
2023-11-26T08:45:06.722Z,2.50
2023-11-26T08:47:34.370Z,2.70
2023-11-26T08:50:01.300Z,2.97
2023-11-26T08:52:28.292Z,3.25
2023-11-26T08:54:55.605Z,2.92
2023-11-26T08:57:22.528Z,3.72
2023-11-26T08:59:49.534Z,2.97
2023-11-26T09:02:16.561Z,4.13
2023-11-26T09:04:43.689Z,3.03
2023-11-26T09:07:10.616Z,2.70
2023-11-26T09:09:37.567Z,2.63
2023-11-26T09:12:04.905Z,4.90
2023-11-26T09:14:31.796Z,3.47
2023-11-26T09:16:58.779Z,3.25
2023-11-26T09:19:25.797Z,2.38
2023-11-26T09:21:52.940Z,2.05
2023-11-26T09:24:20.461Z,2.67
2023-11-26T09:26:47.547Z,2.40
2023-11-26T09:29:21.055Z,2.78
2023-11-26T09:31:54.843Z,2.88
2023-11-26T09:34:21.951Z,2.53
2023-11-26T09:36:48.995Z,2.60
2023-11-26T09:39:15.985Z,2.55
2023-11-26T09:41:42.962Z,2.83
2023-11-26T09:44:09.929Z,2.65
2023-11-26T09:46:37.527Z,5.82
2023-11-26T09:49:04.815Z,7.80
2023-11-26T09:51:35.934Z,6.93
2023-11-26T09:54:02.892Z,4.20
2023-11-26T09:56:32.135Z,5.15
2023-11-26T09:58:59.137Z,2.42
2023-11-26T10:01:26.131Z,3.70
2023-11-26T10:03:59.592Z,3.28
2023-11-26T10:06:30.351Z,3.20
2023-11-26T10:08:58.825Z,3.08
2023-11-26T10:11:29.220Z,2.95
2023-11-26T10:13:56.559Z,3.25
2023-11-26T10:16:34.364Z,3.60
2023-11-26T10:19:04.983Z,3.30
2023-11-26T10:21:33.753Z,9.95
2023-11-26T10:24:20.531Z,9.45
2023-11-26T10:26:48.291Z,8.30
2023-11-26T10:29:15.205Z,2.90
2023-11-26T10:32:07.419Z,4.90
2023-11-26T10:34:38.190Z,5.07
2023-11-26T10:37:21.695Z,8.07
2023-11-26T10:39:54.749Z,4.43
2023-11-26T10:42:21.736Z,4.32
2023-11-26T10:44:51.742Z,4.13
2023-11-26T10:47:21.269Z,3.08
2023-11-26T10:49:53.050Z,3.20
2023-11-26T10:52:56.099Z,3.47
2023-11-26T10:55:30.755Z,3.55
2023-11-26T10:58:07.713Z,3.33
2023-11-26T11:00:36.402Z,9.75
2023-11-26T11:03:04.445Z,3.72
2023-11-26T11:05:31.845Z,3.10
2023-11-26T11:07:58.814Z,2.75
2023-11-26T11:10:36.812Z,3.03
2023-11-26T11:13:15.426Z,3.97
2023-11-26T11:15:43.376Z,2.85
2023-11-26T11:18:28.914Z,3.55
2023-11-26T11:21:31.572Z,3.28
2023-11-26T11:23:58.639Z,3.05
2023-11-26T11:26:25.570Z,2.45
2023-11-26T11:28:55.030Z,2.72
2023-11-26T11:31:44.799Z,2.50
2023-11-26T11:34:14.976Z,4.45
2023-11-26T11:36:44.646Z,5.57
2023-11-26T11:39:15.828Z,4.50
2023-11-26T11:41:57.767Z,3.22
2023-11-26T11:44:35.166Z,4.70
2023-11-26T11:47:06.408Z,3.20
2023-11-26T11:49:48.598Z,3.22
2023-11-26T11:52:16.812Z,3.00
2023-11-26T11:54:59.635Z,2.58
2023-11-26T11:57:28.479Z,2.42
2023-11-26T11:59:56.664Z,3.35
2023-11-26T12:02:24.442Z,5.03
2023-11-26T12:04:51.995Z,3.10
2023-11-26T12:07:20.981Z,4.57
2023-11-26T12:09:48.789Z,11.15
2023-11-26T12:12:19.861Z,4.43
2023-11-26T12:14:47.448Z,3.88
2023-11-26T12:17:14.628Z,7.43
2023-11-26T12:19:43.518Z,10.50
2023-11-26T12:22:11.808Z,3.92
2023-11-26T12:24:39.701Z,3.20
2023-11-26T12:27:07.052Z,3.15
2023-11-26T12:29:35.587Z,6.93
2023-11-26T12:32:06.975Z,3.40
2023-11-26T12:34:41.195Z,3.92
2023-11-26T12:37:10.383Z,5.20
2023-11-26T12:39:39.023Z,15.50
2023-11-26T12:42:06.844Z,3.88
2023-11-26T12:44:33.974Z,16.63
2023-11-26T12:47:08.588Z,5.30
2023-11-26T12:49:35.564Z,4.10
2023-11-26T12:52:02.928Z,3.15
2023-11-26T12:54:29.998Z,3.20
2023-11-26T12:56:57.850Z,3.13
2023-11-26T12:59:24.821Z,3.40
2023-11-26T13:01:51.899Z,7.82
2023-11-26T13:04:29.563Z,2.90
2023-11-26T13:06:56.602Z,3.53
2023-11-26T13:09:24.134Z,3.80
2023-11-26T13:11:51.278Z,2.55
2023-11-26T13:14:24.281Z,3.00
2023-11-26T13:16:51.234Z,3.53
2023-11-26T13:19:18.254Z,2.75
2023-11-26T13:21:49.501Z,3.75
2023-11-26T13:24:17.366Z,4.60
2023-11-26T13:26:44.392Z,4.30
2023-11-26T13:29:11.303Z,2.40
2023-11-26T13:31:38.231Z,3.63
2023-11-26T13:34:05.449Z,3.97
2023-11-26T13:36:32.681Z,4.32
2023-11-26T13:39:00.251Z,3.92
2023-11-26T13:41:27.520Z,4.97
2023-11-26T13:43:54.440Z,3.75
2023-11-26T13:46:21.464Z,3.92
2023-11-26T13:48:48.494Z,3.38
2023-11-26T13:51:15.571Z,7.43
2023-11-26T13:53:42.490Z,4.38
2023-11-26T13:56:09.688Z,4.90
2023-11-26T13:58:36.614Z,2.28
2023-11-26T14:01:03.665Z,4.40
2023-11-26T14:03:30.710Z,13.60
2023-11-26T14:05:57.693Z,13.50
2023-11-26T14:08:24.711Z,3.10
2023-11-26T14:10:51.707Z,3.47
2023-11-26T14:13:18.685Z,2.72
2023-11-26T14:15:45.812Z,4.07
2023-11-26T14:18:12.951Z,3.80
2023-11-26T14:20:40.097Z,4.53
2023-11-26T14:23:07.145Z,4.60
2023-11-26T14:25:34.145Z,5.15
2023-11-26T14:28:01.180Z,3.97
2023-11-26T14:30:28.171Z,15.45
2023-11-26T14:32:55.190Z,3.20
2023-11-26T14:35:22.291Z,6.93
2023-11-26T14:37:49.236Z,8.27
2023-11-26T14:40:16.297Z,2.67
2023-11-26T14:42:44.497Z,2.90
2023-11-26T14:45:12.622Z,3.33
2023-11-26T14:47:42.886Z,3.10
2023-11-26T14:50:10.170Z,7.05
2023-11-26T14:52:37.129Z,8.57
2023-11-26T14:55:04.443Z,16.73
2023-11-26T14:57:31.859Z,8.80
2023-11-26T14:59:59.810Z,11.77
2023-11-26T15:02:26.927Z,54.08
2023-11-26T15:04:53.910Z,19.02
2023-11-26T15:07:20.823Z,83.90
2023-11-26T15:09:47.804Z,14.55
2023-11-26T15:12:14.753Z,67.13
2023-11-26T15:14:42.026Z,54.67
2023-11-26T15:17:09.031Z,51.03
2023-11-26T15:19:36.427Z,85.88
2023-11-26T15:22:05.172Z,16.77
2023-11-26T15:24:32.122Z,5.18
2023-11-26T15:27:00.861Z,8.57
2023-11-26T15:29:27.978Z,6.45
2023-11-26T15:31:54.888Z,3.90
2023-11-26T15:34:22.023Z,4.93
2023-11-26T15:36:49.206Z,8.27
2023-11-26T15:39:17.016Z,35.70
2023-11-26T15:41:44.073Z,92.93
2023-11-26T15:44:11.076Z,9.43
2023-11-26T15:46:38.224Z,23.98
2023-11-26T15:49:05.289Z,7.90
2023-11-26T15:51:32.321Z,3.35
2023-11-26T15:54:02.794Z,4.03
2023-11-26T15:56:30.863Z,4.35
2023-11-26T15:58:57.777Z,11.80
2023-11-26T16:01:24.999Z,6.40
2023-11-26T16:03:52.174Z,23.67
2023-11-26T16:06:19.249Z,14.60
2023-11-26T16:08:46.243Z,8.80
2023-11-26T16:11:13.357Z,11.18
2023-11-26T16:13:40.412Z,27.48
2023-11-26T16:16:07.522Z,15.55
2023-11-26T16:18:34.988Z,7.93
2023-11-26T16:21:02.589Z,67.25
2023-11-26T16:23:29.808Z,38.17
2023-11-26T16:25:56.772Z,21.92
2023-11-26T16:28:23.719Z,6.43
2023-11-26T16:30:50.684Z,57.50
2023-11-26T16:33:48.128Z,74.60
2023-11-26T16:36:16.602Z,24.70
2023-11-26T16:38:43.873Z,35.22
2023-11-26T16:41:11.165Z,21.10
2023-11-26T16:43:40.562Z,39.55
2023-11-26T16:46:09.169Z,59.17
2023-11-26T16:48:37.438Z,11.35
2023-11-26T16:51:04.825Z,7.30
2023-11-26T16:53:31.941Z,16.20
2023-11-26T16:55:59.213Z,6.28
2023-11-26T16:58:26.190Z,35.83
2023-11-26T17:00:53.256Z,23.55
2023-11-26T17:03:20.566Z,12.93
2023-11-26T17:05:47.529Z,12.20
2023-11-26T17:08:14.457Z,8.48
2023-11-26T17:10:41.482Z,14.13
2023-11-26T17:13:08.474Z,19.40
2023-11-26T17:15:35.562Z,6.63
2023-11-26T17:18:02.593Z,11.82
2023-11-26T17:20:29.602Z,7.43
2023-11-26T17:22:56.577Z,6.68
2023-11-26T17:25:24.009Z,43.28
2023-11-26T17:27:54.205Z,16.75
2023-11-26T17:30:21.146Z,44.83
2023-11-26T17:32:48.070Z,76.40
2023-11-26T17:35:15.043Z,39.22
2023-11-26T17:37:42.086Z,12.05
2023-11-26T17:40:09.657Z,29.58
2023-11-26T17:42:37.149Z,48.22
2023-11-26T17:45:04.641Z,26.88
2023-11-26T17:47:31.966Z,23.02
2023-11-26T17:49:59.638Z,97.65
2023-11-26T17:52:26.528Z,45.80
2023-11-26T17:54:53.601Z,68.00
2023-11-26T17:57:20.522Z,85.40
2023-11-26T17:59:47.522Z,113.30
2023-11-26T18:02:14.524Z,87.22
2023-11-26T18:04:42.370Z,84.75
2023-11-26T18:07:09.418Z,38.65
2023-11-26T18:09:36.353Z,22.67
2023-11-26T18:12:03.608Z,30.50
2023-11-26T18:14:30.629Z,29.02
2023-11-26T18:16:57.589Z,56.47
2023-11-26T18:19:24.592Z,70.35
2023-11-26T18:21:51.577Z,50.38
2023-11-26T18:24:18.568Z,24.48
2023-11-26T18:26:48.561Z,22.38
2023-11-26T18:29:16.185Z,67.28
2023-11-26T18:31:43.936Z,34.47
2023-11-26T18:34:11.081Z,79.32
2023-11-26T18:36:38.047Z,20.98
2023-11-26T18:39:05.096Z,74.07
2023-11-26T18:41:32.081Z,63.47
2023-11-26T18:43:59.056Z,110.40
2023-11-26T18:46:26.075Z,16.25
2023-11-26T18:48:53.099Z,35.38
2023-11-26T18:51:20.093Z,52.75
2023-11-26T18:53:47.029Z,23.85
2023-11-26T18:56:20.865Z,71.60
2023-11-26T18:58:47.806Z,43.22
2023-11-26T19:01:18.233Z,59.78
2023-11-26T19:03:45.404Z,35.30
2023-11-26T19:06:15.923Z,31.65
2023-11-26T19:08:43.242Z,29.45
2023-11-26T19:11:10.701Z,46.97
2023-11-26T19:13:37.676Z,38.38
2023-11-26T19:16:04.966Z,17.13
2023-11-26T19:18:32.004Z,28.42
2023-11-26T19:20:58.946Z,41.90
2023-11-26T19:23:27.976Z,19.42
2023-11-26T19:25:56.413Z,94.45
2023-11-26T19:28:23.325Z,48.90
2023-11-26T19:30:50.249Z,46.45
2023-11-26T19:33:17.330Z,54.20
2023-11-26T19:35:44.380Z,20.95
2023-11-26T19:38:11.330Z,23.73
2023-11-26T19:40:39.737Z,20.85
2023-11-26T19:43:06.845Z,35.45
2023-11-26T19:45:33.827Z,41.78
2023-11-26T19:48:00.843Z,79.18
2023-11-26T19:50:27.790Z,51.20
2023-11-26T19:52:54.713Z,36.20
2023-11-26T19:55:23.197Z,32.38
2023-11-26T19:57:50.169Z,23.95
2023-11-26T20:00:20.181Z,30.73
2023-11-26T20:02:47.390Z,22.83
2023-11-26T20:05:14.452Z,52.25
2023-11-26T20:07:41.578Z,27.42
2023-11-26T20:10:08.948Z,28.42
2023-11-26T20:12:36.614Z,30.02
2023-11-26T20:15:04.032Z,34.05
2023-11-26T20:17:31.140Z,36.63
2023-11-26T20:19:58.215Z,53.53
2023-11-26T20:22:25.191Z,47.58
2023-11-26T20:24:52.158Z,60.33
2023-11-26T20:27:19.211Z,42.22
2023-11-26T20:29:46.153Z,102.10
2023-11-26T20:32:13.146Z,48.25
2023-11-26T20:34:40.103Z,50.42
2023-11-26T20:37:07.337Z,37.88
2023-11-26T20:39:34.408Z,49.70
2023-11-26T20:42:01.335Z,27.50
2023-11-26T20:44:28.288Z,59.33
2023-11-26T20:46:55.900Z,94.22
2023-11-26T20:49:23.574Z,74.43
2023-11-26T20:51:51.847Z,25.13
2023-11-26T20:54:18.788Z,52.13
2023-11-26T20:56:45.704Z,35.65
2023-11-26T20:59:12.613Z,25.60
2023-11-26T21:01:39.569Z,43.60
2023-11-26T21:04:06.613Z,25.25
2023-11-26T21:06:33.707Z,40.33
2023-11-26T21:09:00.712Z,27.42
2023-11-26T21:11:27.633Z,23.27
2023-11-26T21:13:54.556Z,51.10
2023-11-26T21:16:21.596Z,38.38
2023-11-26T21:18:48.679Z,36.15
2023-11-26T21:21:16.058Z,36.13
2023-11-26T21:23:43.036Z,35.15
2023-11-26T21:26:09.987Z,52.42
2023-11-26T21:28:37.013Z,40.00
2023-11-26T21:31:04.055Z,36.67
2023-11-26T21:33:31.119Z,68.82
2023-11-26T21:35:58.100Z,71.43
2023-11-26T21:38:28.168Z,43.35
2023-11-26T21:41:01.489Z,52.75
2023-11-26T21:43:34.160Z,50.78
2023-11-26T21:46:01.294Z,30.13
2023-11-26T21:48:28.444Z,43.08
2023-11-26T21:50:55.444Z,33.55
2023-11-26T21:53:22.351Z,16.50
2023-11-26T21:55:49.263Z,16.30
2023-11-26T21:58:16.242Z,16.65
2023-11-26T22:00:43.533Z,19.80
2023-11-26T22:03:10.637Z,25.13
2023-11-26T22:05:37.633Z,25.67
2023-11-26T22:08:04.913Z,32.92
2023-11-26T22:10:31.857Z,31.98
2023-11-26T22:12:58.901Z,25.20
2023-11-26T22:15:25.851Z,24.80
2023-11-26T22:17:52.893Z,28.55
2023-11-26T22:20:19.997Z,34.17
2023-11-26T22:22:46.929Z,17.90
2023-11-26T22:25:13.885Z,25.80
2023-11-26T22:27:40.905Z,39.13
2023-11-26T22:30:11.368Z,16.55
2023-11-26T22:32:39.691Z,17.75
2023-11-26T22:35:09.191Z,19.63
2023-11-26T22:37:36.723Z,20.08
2023-11-26T22:40:03.825Z,14.82
2023-11-26T22:42:30.818Z,15.00
2023-11-26T22:44:57.735Z,16.00
2023-11-26T22:47:24.657Z,14.68
2023-11-26T22:49:51.674Z,41.13
2023-11-26T22:52:18.660Z,17.27
2023-11-26T22:54:45.774Z,21.63
2023-11-26T22:57:13.009Z,19.25
2023-11-26T22:59:40.152Z,19.23
2023-11-26T23:02:08.591Z,16.27
2023-11-26T23:04:36.265Z,15.57
2023-11-26T23:07:03.219Z,22.95
2023-11-26T23:09:30.186Z,16.17
2023-11-26T23:11:57.099Z,28.02
2023-11-26T23:14:24.009Z,27.50
2023-11-26T23:16:51.008Z,31.75
2023-11-26T23:19:17.970Z,41.75
2023-11-26T23:21:44.954Z,34.55
2023-11-26T23:24:11.952Z,30.98
2023-11-26T23:26:38.880Z,26.30
2023-11-26T23:29:05.826Z,23.80
2023-11-26T23:31:33.280Z,31.23
2023-11-26T23:34:00.436Z,29.17
2023-11-26T23:36:27.490Z,22.83
2023-11-26T23:38:54.473Z,23.55
2023-11-26T23:41:21.388Z,28.50
2023-11-26T23:43:48.326Z,18.85
2023-11-26T23:46:15.430Z,27.30
2023-11-26T23:48:42.545Z,14.82
2023-11-26T23:51:09.483Z,24.42
2023-11-26T23:53:36.535Z,15.07
2023-11-26T23:56:03.592Z,13.93
2023-11-26T23:58:30.523Z,14.18
